Uni-arise — 3FSV7 — position and weather

sailwx.info

Track history (hours):
 
Tides and Currents Weather Stations Pressure Air Temp Water Temp Dewpoint Dewpoint Depression Visibility Wind Speed Wind Dir Waves Ship Positions

Uni-arise

Last reported at 2015-Jan-30 12:31 UTC. Time now 2015-Jan-31 21:04 UTC.
Position N 20°11' E 110°09'.

Length 165 m; draft 7.9 m.

Type: Cargo ship. MMSI: 351608000.

Date/timePositionNaut miles runAvg speedWind from/ knotsBaromVisibWave heightAir tempDewpointWater temp
2015-Jan-30 12:31N 20°11' E 110°09'26013.7
2015-Jan-29 17:33N 22°03' E 114°20'1310.3
2015-Jan-29 16:17N 22°12' E 114°10'912.1
2015-Jan-29 15:33N 22°20' E 114°05'1110.8
2015-Jan-29 14:33N 22°23' E 113°54'5 4.8
2015-Jan-29 13:33N 22°28' E 113°54'0 0.0
2015-Jan-29 12:33N 22°28' E 113°54'0 0.0
2015-Jan-29 11:33N 22°28' E 113°54'0 0.0
2015-Jan-29 10:33N 22°28' E 113°54'0 0.0
2015-Jan-29 09:30N 22°28' E 113°54'0 0.0
2015-Jan-29 08:30N 22°28' E 113°54'1 1.1
2015-Jan-29 07:33N 22°27' E 113°53'8 6.9
2015-Jan-29 06:27N 22°21' E 113°59'5 5.1
2015-Jan-29 05:26N 22°20' E 114°04'0 0.1
2015-Jan-29 04:29N 22°20' E 114°04'0 0.0
2015-Jan-29 03:32N 22°20' E 114°04'0 0.0
2015-Jan-29 02:29N 22°20' E 114°04'0 0.1
2015-Jan-29 01:32N 22°20' E 114°04'0 0.0
2015-Jan-29 00:32N 22°20' E 114°04'0 0.0
2015-Jan-28 23:33N 22°20' E 114°04'0 0.0
2015-Jan-28 22:32N 22°20' E 114°04'2 2.3
2015-Jan-28 21:33N 22°19' E 114°06'1 1.1
2015-Jan-28 20:33N 22°20' E 114°08'0 0.0
2015-Jan-28 19:33N 22°20' E 114°08'0 0.0
2015-Jan-28 18:33N 22°20' E 114°08'0 0.0
2015-Jan-28 17:32N 22°20' E 114°08'0 0.0
2015-Jan-28 16:33N 22°20' E 114°08'0 0.0
2015-Jan-28 15:33N 22°20' E 114°08'0 0.0
2015-Jan-28 14:33N 22°20' E 114°08'0 0.0
2015-Jan-28 13:33N 22°20' E 114°08'0 0.0
2015-Jan-28 12:33N 22°20' E 114°08'0 0.0
2015-Jan-28 11:33N 22°20' E 114°08'0 0.0
2015-Jan-28 10:33N 22°20' E 114°08'0 0.0
2015-Jan-28 09:33N 22°20' E 114°08'2 1.9
2015-Jan-28 08:33N 22°19' E 114°06'13 9.4
2015-Jan-28 07:12N 22°09' E 114°15'  
2015-Jan-24 23:20N 22°02' E 114°20'1910.8
2015-Jan-24 21:33N 22°17' E 114°06'3 3.2
2015-Jan-24 20:33N 22°20' E 114°08'0 0.0
2015-Jan-24 19:33N 22°20' E 114°08'0 0.0
2015-Jan-24 18:33N 22°20' E 114°08'0 0.0
2015-Jan-24 17:33N 22°20' E 114°08'0 0.0
2015-Jan-24 16:30N 22°20' E 114°08'0 0.0
2015-Jan-24 15:30N 22°20' E 114°08'3 3.0
2015-Jan-24 14:33N 22°20' E 114°05'1110.5
2015-Jan-24 13:31N 22°24' E 113°53'3 1.5
2015-Jan-24 11:20N 22°27' E 113°53'0 0.0
2015-Jan-24 09:14N 22°27' E 113°53'0 0.0
2015-Jan-24 07:20N 22°27' E 113°53'0 0.0
2015-Jan-24 06:08N 22°27' E 113°53'0 0.0
2015-Jan-24 04:20N 22°27' E 113°53'0 0.0
2015-Jan-24 03:32N 22°27' E 113°53'13 6.7
2015-Jan-24 01:33N 22°19' E 114°05'16 7.9
2015-Jan-23 23:28N 22°09' E 114°19'  
Track history (hours):
 
Tides and Currents Weather Stations Pressure Air Temp Water Temp Dewpoint Dewpoint Depression Visibility Wind Speed Wind Dir Waves Ship Positions

Uni-arise

Last reported at 2015-Jan-30 12:31 UTC. Time now 2015-Jan-31 21:04 UTC.
Position N 20°11' E 110°09'.

Length 165 m; draft 7.9 m.

Type: Cargo ship. MMSI: 351608000.

Date/timePositionNaut miles runAvg speedWind from/ knotsBaromVisibWave heightAir tempDewpointWater temp
2015-Jan-30 12:31N 20°11' E 110°09'26013.7
2015-Jan-29 17:33N 22°03' E 114°20'1310.3
2015-Jan-29 16:17N 22°12' E 114°10'912.1
2015-Jan-29 15:33N 22°20' E 114°05'1110.8
2015-Jan-29 14:33N 22°23' E 113°54'5 4.8
2015-Jan-29 13:33N 22°28' E 113°54'0 0.0
2015-Jan-29 12:33N 22°28' E 113°54'0 0.0
2015-Jan-29 11:33N 22°28' E 113°54'0 0.0
2015-Jan-29 10:33N 22°28' E 113°54'0 0.0
2015-Jan-29 09:30N 22°28' E 113°54'0 0.0
2015-Jan-29 08:30N 22°28' E 113°54'1 1.1
2015-Jan-29 07:33N 22°27' E 113°53'8 6.9
2015-Jan-29 06:27N 22°21' E 113°59'5 5.1
2015-Jan-29 05:26N 22°20' E 114°04'0 0.1
2015-Jan-29 04:29N 22°20' E 114°04'0 0.0
2015-Jan-29 03:32N 22°20' E 114°04'0 0.0
2015-Jan-29 02:29N 22°20' E 114°04'0 0.1
2015-Jan-29 01:32N 22°20' E 114°04'0 0.0
2015-Jan-29 00:32N 22°20' E 114°04'0 0.0
2015-Jan-28 23:33N 22°20' E 114°04'0 0.0
2015-Jan-28 22:32N 22°20' E 114°04'2 2.3
2015-Jan-28 21:33N 22°19' E 114°06'1 1.1
2015-Jan-28 20:33N 22°20' E 114°08'0 0.0
2015-Jan-28 19:33N 22°20' E 114°08'0 0.0
2015-Jan-28 18:33N 22°20' E 114°08'0 0.0
2015-Jan-28 17:32N 22°20' E 114°08'0 0.0
2015-Jan-28 16:33N 22°20' E 114°08'0 0.0
2015-Jan-28 15:33N 22°20' E 114°08'0 0.0
2015-Jan-28 14:33N 22°20' E 114°08'0 0.0
2015-Jan-28 13:33N 22°20' E 114°08'0 0.0
2015-Jan-28 12:33N 22°20' E 114°08'0 0.0
2015-Jan-28 11:33N 22°20' E 114°08'0 0.0
2015-Jan-28 10:33N 22°20' E 114°08'0 0.0
2015-Jan-28 09:33N 22°20' E 114°08'2 1.9
2015-Jan-28 08:33N 22°19' E 114°06'13 9.4
2015-Jan-28 07:12N 22°09' E 114°15'  
2015-Jan-24 23:20N 22°02' E 114°20'1910.8
2015-Jan-24 21:33N 22°17' E 114°06'3 3.2
2015-Jan-24 20:33N 22°20' E 114°08'0 0.0
2015-Jan-24 19:33N 22°20' E 114°08'0 0.0
2015-Jan-24 18:33N 22°20' E 114°08'0 0.0
2015-Jan-24 17:33N 22°20' E 114°08'0 0.0
2015-Jan-24 16:30N 22°20' E 114°08'0 0.0
2015-Jan-24 15:30N 22°20' E 114°08'3 3.0
2015-Jan-24 14:33N 22°20' E 114°05'1110.5
2015-Jan-24 13:31N 22°24' E 113°53'3 1.5
2015-Jan-24 11:20N 22°27' E 113°53'0 0.0
2015-Jan-24 09:14N 22°27' E 113°53'0 0.0
2015-Jan-24 07:20N 22°27' E 113°53'0 0.0
2015-Jan-24 06:08N 22°27' E 113°53'0 0.0
2015-Jan-24 04:20N 22°27' E 113°53'0 0.0
2015-Jan-24 03:32N 22°27' E 113°53'13 6.7
2015-Jan-24 01:33N 22°19' E 114°05'16 7.9
2015-Jan-23 23:28N 22°09' E 114°19'  

Dump ship's entire track history